Time,TemperatureF,DewpointF,PressureIn,WindDirection,WindDirectionDegrees,WindSpeedMPH,WindSpeedGustMPH,Humidity,HourlyPrecipIn,Conditions,Clouds,dailyrainin,SolarRadiationWatts/m^2,SoftwareType,DateUTC
2013-01-19 00:00:00,31.0,27.3,29.85,WSW,238,0.0,0.0,86,0.00,,,0.00,0,Wunderground v.1.15,2013-01-19 06:00:00,
2013-01-19 00:06:00,31.0,27.3,29.85,WSW,238,0.0,0.0,86,0.00,,,0.00,0,Wunderground v.1.15,2013-01-19 06:06:00,
2013-01-19 00:12:00,30.9,27.2,29.85,WSW,238,0.0,0.0,86,0.00,,,0.00,0,Wunderground v.1.15,2013-01-19 06:12:00,
2013-01-19 00:17:00,30.9,27.2,29.85,WSW,238,0.0,0.0,86,0.00,,,0.00,0,Wunderground v.1.15,2013-01-19 06:17:00,
2013-01-19 00:23:00,30.6,26.6,29.85,WSW,238,0.0,0.0,85,0.00,,,0.00,0,Wunderground v.1.15,2013-01-19 06:23:00,
2013-01-19 00:28:00,30.4,26.7,29.85,WSW,238,0.0,0.0,86,0.00,,,0.00,0,Wunderground v.1.15,2013-01-19 06:28:00,
2013-01-19 00:34:00,30.0,26.3,29.86,WSW,238,0.0,0.0,86,0.00,,,0.00,0,Wunderground v.1.15,2013-01-19 06:34:00,
2013-01-19 00:39:00,30.0,26.6,29.86,WSW,238,0.0,0.0,87,0.00,,,0.00,0,Wunderground v.1.15,2013-01-19 06:39:00,
2013-01-19 00:45:00,30.1,26.7,29.85,WSW,238,0.0,0.0,87,0.00,,,0.00,0,Wunderground v.1.15,2013-01-19 06:45:00,
2013-01-19 00:50:00,30.2,26.8,29.85,WSW,238,0.0,0.0,87,0.00,,,0.00,0,Wunderground v.1.15,2013-01-19 06:50:00,
2013-01-19 00:56:00,30.3,26.9,29.85,WSW,238,0.0,0.0,87,0.00,,,0.00,0,Wunderground v.1.15,2013-01-19 06:56:00,
2013-01-19 01:01:00,30.5,27.1,29.84,WSW,238,0.0,0.0,87,0.00,,,0.00,0,Wunderground v.1.15,2013-01-19 07:01:00,
2013-01-19 01:06:00,30.6,27.2,29.84,WSW,238,0.0,0.0,87,0.00,,,0.00,0,Wunderground v.1.15,2013-01-19 07:06:00,
2013-01-19 01:11:00,30.6,27.2,29.84,WSW,238,0.0,0.0,87,0.00,,,0.00,0,Wunderground v.1.15,2013-01-19 07:11:00,
2013-01-19 01:17:00,30.7,27.3,29.84,WSW,238,0.0,0.0,87,0.00,,,0.00,0,Wunderground v.1.15,2013-01-19 07:17:00,
2013-01-19 01:22:00,30.7,27.3,29.84,WSW,238,0.0,0.0,87,0.00,,,0.00,0,Wunderground v.1.15,2013-01-19 07:22:00,
2013-01-19 01:27:00,30.7,27.3,29.83,WSW,238,0.0,0.0,87,0.00,,,0.00,0,Wunderground v.1.15,2013-01-19 07:27:00,
2013-01-19 01:32:00,30.8,27.4,29.83,WSW,238,0.0,0.0,87,0.00,,,0.00,0,Wunderground v.1.15,2013-01-19 07:32:00,
2013-01-19 01:37:00,30.8,27.4,29.83,WSW,238,0.0,0.0,87,0.00,,,0.00,0,Wunderground v.1.15,2013-01-19 07:37:00,
2013-01-19 01:43:00,30.8,27.4,29.83,WSW,238,0.0,0.0,87,0.00,,,0.00,0,Wunderground v.1.15,2013-01-19 07:43:00,
2013-01-19 01:48:00,30.8,27.4,29.83,WSW,238,0.0,0.0,87,0.00,,,0.00,0,Wunderground v.1.15,2013-01-19 07:48:00,
2013-01-19 01:53:00,30.5,26.8,29.83,WSW,238,0.0,0.0,86,0.00,,,0.00,0,Wunderground v.1.15,2013-01-19 07:53:00,
2013-01-19 01:58:00,30.3,26.6,29.83,WSW,238,0.0,0.0,86,0.00,,,0.00,0,Wunderground v.1.15,2013-01-19 07:58:00,
2013-01-19 02:03:00,30.3,26.9,29.83,WSW,238,0.0,0.0,87,0.00,,,0.00,0,Wunderground v.1.15,2013-01-19 08:03:00,
2013-01-19 02:08:00,30.3,26.9,29.82,WSW,238,0.0,0.0,87,0.00,,,0.00,0,Wunderground v.1.15,2013-01-19 08:08:00,
2013-01-19 02:13:00,30.2,26.8,29.82,WSW,238,0.0,0.0,87,0.00,,,0.00,0,Wunderground v.1.15,2013-01-19 08:13:00,
2013-01-19 02:18:00,30.2,26.8,29.82,WSW,238,0.0,0.0,87,0.00,,,0.00,0,Wunderground v.1.15,2013-01-19 08:18:00,
2013-01-19 02:23:00,30.1,26.7,29.82,WSW,238,0.0,0.0,87,0.00,,,0.00,0,Wunderground v.1.15,2013-01-19 08:23:00,
2013-01-19 02:28:00,30.0,26.6,29.82,WSW,238,0.0,0.0,87,0.00,,,0.00,0,Wunderground v.1.15,2013-01-19 08:28:00,
2013-01-19 02:33:00,30.0,26.6,29.82,WSW,238,0.0,0.0,87,0.00,,,0.00,0,Wunderground v.1.15,2013-01-19 08:33:00,
2013-01-19 02:39:00,30.1,27.0,29.82,WSW,238,0.0,0.0,88,0.00,,,0.00,0,Wunderground v.1.15,2013-01-19 08:39:00,
2013-01-19 02:44:00,30.2,27.1,29.81,WSW,238,0.0,0.0,88,0.00,,,0.00,0,Wunderground v.1.15,2013-01-19 08:44:00,
2013-01-19 02:49:00,30.1,27.0,29.80,WSW,238,0.0,0.0,88,0.00,,,0.00,0,Wunderground v.1.15,2013-01-19 08:49:00,
2013-01-19 02:54:00,30.2,27.1,29.80,WSW,238,1.0,1.0,88,0.00,,,0.00,0,Wunderground v.1.15,2013-01-19 08:54:00,
2013-01-19 02:59:00,30.5,27.4,29.80,WSW,238,0.0,0.0,88,0.00,,,0.00,0,Wunderground v.1.15,2013-01-19 08:59:00,
2013-01-19 03:04:00,30.6,27.5,29.80,WSW,238,0.0,1.0,88,0.00,,,0.00,0,Wunderground v.1.15,2013-01-19 09:04:00,
2013-01-19 03:09:00,30.6,27.5,29.80,WSW,238,0.0,0.0,88,0.00,,,0.00,0,Wunderground v.1.15,2013-01-19 09:09:00,
2013-01-19 03:14:00,30.8,27.7,29.80,WSW,238,0.0,0.0,88,0.00,,,0.00,0,Wunderground v.1.15,2013-01-19 09:14:00,
2013-01-19 03:19:00,31.0,27.9,29.80,WSW,238,0.0,0.0,88,0.00,,,0.00,0,Wunderground v.1.15,2013-01-19 09:19:00,
2013-01-19 03:24:00,31.0,27.9,29.80,WSW,238,0.0,0.0,88,0.00,,,0.00,0,Wunderground v.1.15,2013-01-19 09:24:00,
2013-01-19 03:29:00,31.0,27.6,29.80,WSW,238,0.0,0.0,87,0.00,,,0.00,0,Wunderground v.1.15,2013-01-19 09:29:00,
2013-01-19 03:35:00,30.9,27.5,29.80,WSW,238,2.0,3.0,87,0.00,,,0.00,0,Wunderground v.1.15,2013-01-19 09:35:00,
2013-01-19 03:40:00,30.9,27.5,29.80,WSW,238,1.0,2.0,87,0.00,,,0.00,0,Wunderground v.1.15,2013-01-19 09:40:00,
2013-01-19 03:45:00,30.9,27.8,29.79,WSW,238,3.0,3.0,88,0.00,,,0.00,0,Wunderground v.1.15,2013-01-19 09:45:00,
2013-01-19 03:50:00,31.0,27.9,29.79,SSW,196,4.0,4.0,88,0.00,,,0.00,0,Wunderground v.1.15,2013-01-19 09:50:00,
2013-01-19 03:55:00,31.1,28.0,29.78,South,184,3.0,4.0,88,0.00,,,0.00,0,Wunderground v.1.15,2013-01-19 09:55:00,
2013-01-19 04:00:00,31.2,28.1,29.78,South,182,0.0,3.0,88,0.00,,,0.00,0,Wunderground v.1.15,2013-01-19 10:00:00,
2013-01-19 04:05:00,31.3,28.2,29.77,South,181,4.0,4.0,88,0.00,,,0.00,0,Wunderground v.1.15,2013-01-19 10:05:00,
2013-01-19 04:10:00,31.4,28.3,29.77,South,182,1.0,4.0,88,0.00,,,0.00,0,Wunderground v.1.15,2013-01-19 10:10:00,
2013-01-19 04:15:00,31.5,28.4,29.77,South,178,1.0,4.0,88,0.00,,,0.00,0,Wunderground v.1.15,2013-01-19 10:15:00,
2013-01-19 04:21:00,31.6,28.5,29.77,South,178,4.0,4.0,88,0.00,,,0.00,0,Wunderground v.1.15,2013-01-19 10:21:00,
2013-01-19 04:26:00,31.7,28.3,29.77,South,182,0.0,6.0,87,0.00,,,0.00,0,Wunderground v.1.15,2013-01-19 10:26:00,
2013-01-19 04:31:00,31.8,28.4,29.76,South,184,4.0,6.0,87,0.00,,,0.00,0,Wunderground v.1.15,2013-01-19 10:31:00,
2013-01-19 04:36:00,31.8,28.4,29.76,South,170,5.0,8.0,87,0.00,,,0.00,0,Wunderground v.1.15,2013-01-19 10:36:00,
2013-01-19 04:41:00,31.9,28.5,29.75,South,175,4.0,9.0,87,0.00,,,0.00,0,Wunderground v.1.15,2013-01-19 10:41:00,
2013-01-19 04:46:00,32.0,28.6,29.75,South,175,4.0,10.0,87,0.00,,,0.00,0,Wunderground v.1.15,2013-01-19 10:46:00,
2013-01-19 04:51:00,32.2,28.8,29.76,SW,215,4.0,9.0,87,0.00,,,0.00,0,Wunderground v.1.15,2013-01-19 10:51:00,
2013-01-19 04:57:00,32.3,28.9,29.75,SSW,197,4.0,9.0,87,0.00,,,0.00,0,Wunderground v.1.15,2013-01-19 10:57:00,
2013-01-19 05:02:00,32.4,29.0,29.74,South,181,5.0,7.0,87,0.00,,,0.00,0,Wunderground v.1.15,2013-01-19 11:02:00,
2013-01-19 05:07:00,32.5,29.1,29.74,SSW,202,3.0,8.0,87,0.00,,,0.00,0,Wunderground v.1.15,2013-01-19 11:07:00,
2013-01-19 05:12:00,32.6,29.2,29.75,SSW,198,4.0,7.0,87,0.00,,,0.00,0,Wunderground v.1.15,2013-01-19 11:12:00,
2013-01-19 06:47:00,30.6,27.5,29.74,South,171,4.0,6.0,88,0.00,,,0.00,0,Wunderground v.1.15,2013-01-19 12:47:00,
2013-01-19 06:48:00,30.6,27.5,29.73,SSE,167,6.0,6.0,88,0.00,,,0.00,0,Wunderground v.1.15,2013-01-19 12:48:00,
2013-01-19 06:49:00,30.6,27.5,29.73,South,171,4.0,6.0,88,0.00,,,0.00,0,Wunderground v.1.15,2013-01-19 12:49:00,
2013-01-19 06:50:00,30.6,27.5,29.73,South,170,5.0,6.0,88,0.00,,,0.00,0,Wunderground v.1.15,2013-01-19 12:50:00,
2013-01-19 06:55:00,30.7,27.6,29.73,South,181,3.0,8.0,88,0.00,,,0.00,0,Wunderground v.1.15,2013-01-19 12:55:00,
2013-01-19 07:00:00,30.7,27.6,29.74,SW,221,2.0,4.0,88,0.00,,,0.00,0,Wunderground v.1.15,2013-01-19 13:00:00,
2013-01-19 07:06:00,30.7,27.6,29.74,SW,221,2.0,4.0,88,0.00,,,0.00,0,Wunderground v.1.15,2013-01-19 13:06:00,
2013-01-19 07:11:00,30.6,27.5,29.73,SW,221,1.0,3.0,88,0.00,,,0.00,0,Wunderground v.1.15,2013-01-19 13:11:00,
2013-01-19 07:16:00,30.6,27.5,29.72,SW,218,2.0,3.0,88,0.00,,,0.00,0,Wunderground v.1.15,2013-01-19 13:16:00,
2013-01-19 07:21:00,30.6,27.7,29.71,South,186,4.0,4.0,89,0.00,,,0.00,0,Wunderground v.1.15,2013-01-19 13:21:00,
2013-01-19 07:26:00,30.7,27.8,29.73,WSW,249,0.0,5.0,89,0.00,,,0.00,0,Wunderground v.1.15,2013-01-19 13:26:00,
2013-01-19 07:31:00,30.8,27.9,29.73,WSW,249,0.0,3.0,89,0.00,,,0.00,0,Wunderground v.1.15,2013-01-19 13:31:00,
2013-01-19 07:36:00,30.7,27.8,29.74,WSW,249,0.0,3.0,89,0.00,,,0.00,0,Wunderground v.1.15,2013-01-19 13:36:00,
2013-01-19 07:41:00,30.7,27.8,29.75,WSW,250,2.0,4.0,89,0.00,,,0.00,0,Wunderground v.1.15,2013-01-19 13:41:00,
2013-01-19 07:46:00,30.7,27.8,29.76,WSW,252,2.0,4.0,89,0.00,,,0.00,0,Wunderground v.1.15,2013-01-19 13:46:00,
2013-01-19 07:51:00,30.7,27.8,29.75,WSW,252,2.0,3.0,89,0.00,,,0.00,5,Wunderground v.1.15,2013-01-19 13:51:00,
2013-01-19 07:57:00,30.5,27.4,29.75,WSW,252,2.0,3.0,88,0.00,,,0.00,5,Wunderground v.1.15,2013-01-19 13:57:00,
2013-01-19 08:01:00,30.4,27.5,29.75,WSW,249,3.0,4.0,89,0.00,,,0.00,9,Wunderground v.1.15,2013-01-19 14:01:00,
2013-01-19 08:07:00,30.4,27.5,29.75,WSW,249,1.0,4.0,89,0.00,,,0.00,11,Wunderground v.1.15,2013-01-19 14:07:00,
2013-01-19 08:12:00,30.4,27.5,29.75,WSW,249,1.0,2.0,89,0.00,,,0.00,16,Wunderground v.1.15,2013-01-19 14:12:00,
2013-01-19 08:17:00,30.4,27.5,29.74,WSW,249,2.0,2.0,89,0.00,,,0.00,19,Wunderground v.1.15,2013-01-19 14:17:00,
2013-01-19 08:22:00,30.5,27.6,29.75,WSW,248,0.0,3.0,89,0.00,,,0.00,23,Wunderground v.1.15,2013-01-19 14:22:00,
2013-01-19 08:27:00,30.5,27.6,29.75,WSW,248,2.0,4.0,89,0.00,,,0.00,26,Wunderground v.1.15,2013-01-19 14:27:00,
2013-01-19 08:32:00,30.6,27.7,29.76,WSW,248,1.0,4.0,89,0.00,,,0.00,25,Wunderground v.1.15,2013-01-19 14:32:00,
2013-01-19 08:37:00,30.8,27.9,29.76,WSW,242,2.0,5.0,89,0.00,,,0.00,32,Wunderground v.1.15,2013-01-19 14:37:00,
2013-01-19 08:42:00,30.9,28.0,29.75,WSW,242,1.0,4.0,89,0.00,,,0.00,40,Wunderground v.1.15,2013-01-19 14:42:00,
2013-01-19 08:48:00,31.1,28.2,29.76,SW,229,3.0,5.0,89,0.00,,,0.00,37,Wunderground v.1.15,2013-01-19 14:48:00,
2013-01-19 08:53:00,31.3,28.4,29.76,SW,235,3.0,5.0,89,0.00,,,0.00,35,Wunderground v.1.15,2013-01-19 14:53:00,
2013-01-19 08:58:00,31.5,28.6,29.75,SW,234,2.0,3.0,89,0.00,,,0.00,72,Wunderground v.1.15,2013-01-19 14:58:00,
2013-01-19 09:03:00,31.7,28.8,29.76,SW,232,2.0,4.0,89,0.00,,,0.00,49,Wunderground v.1.15,2013-01-19 15:03:00,
2013-01-19 09:08:00,31.9,29.0,29.76,SW,232,4.0,4.0,89,0.00,,,0.00,56,Wunderground v.1.15,2013-01-19 15:08:00,
2013-01-19 09:13:00,32.1,28.9,29.75,SW,225,4.0,6.0,88,0.00,,,0.00,69,Wunderground v.1.15,2013-01-19 15:13:00,
2013-01-19 09:18:00,32.4,29.2,29.76,SW,236,3.0,4.0,88,0.00,,,0.00,120,Wunderground v.1.15,2013-01-19 15:18:00,
2013-01-19 09:24:00,32.6,29.4,29.76,SW,230,6.0,7.0,88,0.00,,,0.00,111,Wunderground v.1.15,2013-01-19 15:24:00,
2013-01-19 09:29:00,32.9,29.5,29.76,SW,232,5.0,5.0,87,0.00,,,0.00,86,Wunderground v.1.15,2013-01-19 15:29:00,
2013-01-19 09:34:00,33.2,29.8,29.76,WSW,237,3.0,6.0,87,0.00,,,0.00,86,Wunderground v.1.15,2013-01-19 15:34:00,
2013-01-19 09:39:00,33.3,29.8,29.76,SW,233,0.0,4.0,87,0.00,,,0.00,95,Wunderground v.1.15,2013-01-19 15:39:00,
2013-01-19 09:44:00,33.5,30.0,29.77,West,259,4.0,7.0,87,0.00,,,0.00,104,Wunderground v.1.15,2013-01-19 15:44:00,
2013-01-19 09:49:00,33.9,30.2,29.78,WSW,252,10.0,12.0,86,0.00,,,0.00,114,Wunderground v.1.15,2013-01-19 15:49:00,
2013-01-19 09:54:00,34.2,30.2,29.78,West,261,8.0,12.0,85,0.00,,,0.00,127,Wunderground v.1.15,2013-01-19 15:54:00,
2013-01-19 09:59:00,34.4,30.1,29.78,WSW,250,3.0,8.0,84,0.00,,,0.00,146,Wunderground v.1.15,2013-01-19 15:59:00,
2013-01-19 10:04:00,34.5,30.2,29.77,West,259,6.0,8.0,84,0.00,,,0.00,128,Wunderground v.1.15,2013-01-19 16:04:00,
2013-01-19 10:09:00,34.7,30.1,29.78,West,273,4.0,6.0,83,0.00,,,0.00,95,Wunderground v.1.15,2013-01-19 16:09:00,
2013-01-19 10:14:00,34.8,30.2,29.78,West,263,6.0,11.0,83,0.00,,,0.00,104,Wunderground v.1.15,2013-01-19 16:14:00,
2013-01-19 10:20:00,35.1,30.2,29.78,West,265,15.0,15.0,82,0.00,,,0.00,123,Wunderground v.1.15,2013-01-19 16:20:00,
2013-01-19 10:25:00,35.3,30.1,29.77,WSW,257,13.0,19.0,81,0.00,,,0.00,128,Wunderground v.1.15,2013-01-19 16:25:00,
2013-01-19 10:30:00,35.5,29.9,29.77,West,270,8.0,11.0,80,0.00,,,0.00,137,Wunderground v.1.15,2013-01-19 16:30:00,
2013-01-19 10:35:00,35.6,30.0,29.77,West,280,6.0,11.0,80,0.00,,,0.00,156,Wunderground v.1.15,2013-01-19 16:35:00,
2013-01-19 10:40:00,35.7,29.8,29.78,West,259,11.0,14.0,79,0.00,,,0.00,230,Wunderground v.1.15,2013-01-19 16:40:00,
2013-01-19 10:45:00,35.9,30.0,29.78,WNW,284,11.0,19.0,79,0.00,,,0.00,241,Wunderground v.1.15,2013-01-19 16:45:00,
2013-01-19 10:50:00,36.0,29.8,29.79,West,279,11.0,16.0,78,0.00,,,0.00,185,Wunderground v.1.15,2013-01-19 16:50:00,
2013-01-19 10:55:00,36.1,29.9,29.79,WNW,296,19.0,24.0,78,0.00,,,0.00,105,Wunderground v.1.15,2013-01-19 16:55:00,
2013-01-19 11:01:00,36.1,29.9,29.79,WNW,288,9.0,13.0,78,0.00,,,0.00,127,Wunderground v.1.15,2013-01-19 17:01:00,
2013-01-19 11:06:00,36.0,29.5,29.78,WNW,302,6.0,16.0,77,0.00,,,0.00,104,Wunderground v.1.15,2013-01-19 17:06:00,
2013-01-19 11:11:00,36.0,29.5,29.79,WNW,292,18.0,18.0,77,0.00,,,0.00,192,Wunderground v.1.15,2013-01-19 17:11:00,
2013-01-19 11:16:00,36.1,29.6,29.79,WNW,302,7.0,18.0,77,0.00,,,0.00,376,Wunderground v.1.15,2013-01-19 17:16:00,
2013-01-19 11:22:00,36.2,29.7,29.78,NW,304,7.0,18.0,77,0.00,,,0.00,287,Wunderground v.1.15,2013-01-19 17:22:00,
2013-01-19 11:28:00,36.5,30.0,29.78,WNW,301,6.0,18.0,77,0.00,,,0.00,309,Wunderground v.1.15,2013-01-19 17:28:00,
2013-01-19 11:33:00,36.6,30.1,29.77,West,265,10.0,14.0,77,0.00,,,0.00,174,Wunderground v.1.15,2013-01-19 17:33:00,
2013-01-19 11:38:00,36.4,29.6,29.77,WNW,286,13.0,13.0,76,0.00,,,0.00,142,Wunderground v.1.15,2013-01-19 17:38:00,
2013-01-19 11:43:00,36.4,29.9,29.77,WNW,292,12.0,13.0,77,0.00,,,0.00,162,Wunderground v.1.15,2013-01-19 17:43:00,
2013-01-19 11:48:00,36.5,29.7,29.77,WNW,300,7.0,10.0,76,0.00,,,0.00,190,Wunderground v.1.15,2013-01-19 17:48:00,
2013-01-19 11:53:00,36.6,30.1,29.77,NW,306,11.0,18.0,77,0.00,,,0.00,241,Wunderground v.1.15,2013-01-19 17:53:00,
2013-01-19 11:58:00,36.8,29.9,29.77,NW,323,10.0,12.0,76,0.00,,,0.00,446,Wunderground v.1.15,2013-01-19 17:58:00,
2013-01-19 12:04:00,37.0,30.1,29.77,West,275,8.0,19.0,76,0.00,,,0.00,306,Wunderground v.1.15,2013-01-19 18:04:00,
2013-01-19 12:09:00,37.3,30.4,29.77,NW,304,12.0,12.0,76,0.00,,,0.00,371,Wunderground v.1.15,2013-01-19 18:09:00,
2013-01-19 12:14:00,37.6,30.4,29.77,WNW,287,15.0,15.0,75,0.00,,,0.00,192,Wunderground v.1.15,2013-01-19 18:14:00,
2013-01-19 12:19:00,37.7,30.5,29.77,WNW,288,11.0,22.0,75,0.00,,,0.00,179,Wunderground v.1.15,2013-01-19 18:19:00,
2013-01-19 12:24:00,37.5,30.3,29.77,WNW,296,15.0,22.0,75,0.00,,,0.00,153,Wunderground v.1.15,2013-01-19 18:24:00,
2013-01-19 12:29:00,37.6,30.4,29.77,WNW,295,8.0,13.0,75,0.00,,,0.00,264,Wunderground v.1.15,2013-01-19 18:29:00,
2013-01-19 12:34:00,37.7,30.2,29.77,WNW,282,11.0,20.0,74,0.00,,,0.00,192,Wunderground v.1.15,2013-01-19 18:34:00,
2013-01-19 12:39:00,37.7,30.5,29.77,WNW,298,13.0,20.0,75,0.00,,,0.00,139,Wunderground v.1.15,2013-01-19 18:39:00,
2013-01-19 12:44:00,37.7,30.5,29.77,WNW,298,6.0,21.0,75,0.00,,,0.00,72,Wunderground v.1.15,2013-01-19 18:44:00,
2013-01-19 12:49:00,37.6,30.4,29.77,WNW,296,15.0,15.0,75,0.00,,,0.00,97,Wunderground v.1.15,2013-01-19 18:49:00,
2013-01-19 12:55:00,37.6,30.4,29.77,West,275,19.0,19.0,75,0.00,,,0.00,199,Wunderground v.1.15,2013-01-19 18:55:00,
2013-01-19 13:00:00,37.6,30.4,29.76,WNW,300,18.0,18.0,75,0.00,,,0.00,309,Wunderground v.1.15,2013-01-19 19:00:00,
2013-01-19 13:05:00,37.7,30.5,29.77,NW,305,9.0,18.0,75,0.00,,,0.00,163,Wunderground v.1.15,2013-01-19 19:05:00,
2013-01-19 13:10:00,37.8,30.6,29.77,WNW,286,9.0,19.0,75,0.00,,,0.00,109,Wunderground v.1.15,2013-01-19 19:10:00,
2013-01-19 13:16:00,37.9,30.7,29.77,West,273,20.0,23.0,75,0.00,,,0.00,148,Wunderground v.1.15,2013-01-19 19:16:00,
2013-01-19 13:21:00,38.0,30.8,29.77,West,273,16.0,16.0,75,0.00,,,0.00,176,Wunderground v.1.15,2013-01-19 19:21:00,
2013-01-19 13:26:00,38.2,30.6,29.77,WNW,287,12.0,20.0,74,0.00,,,0.00,169,Wunderground v.1.15,2013-01-19 19:26:00,
2013-01-19 13:32:00,38.2,30.3,29.76,West,263,22.0,22.0,73,0.00,,,0.00,72,Wunderground v.1.15,2013-01-19 19:32:00,
2013-01-19 13:37:00,38.2,30.3,29.76,West,271,20.0,26.0,73,0.00,,,0.00,111,Wunderground v.1.15,2013-01-19 19:37:00,
2013-01-19 13:42:00,38.2,30.3,29.76,WNW,303,8.0,18.0,73,0.00,,,0.00,132,Wunderground v.1.15,2013-01-19 19:42:00,
2013-01-19 13:47:00,38.2,30.0,29.76,West,273,16.0,23.0,72,0.00,,,0.00,95,Wunderground v.1.15,2013-01-19 19:47:00,
2013-01-19 13:52:00,38.3,30.1,29.76,West,273,19.0,26.0,72,0.00,,,0.00,111,Wunderground v.1.15,2013-01-19 19:52:00,
2013-01-19 13:58:00,38.3,30.1,29.76,West,279,16.0,17.0,72,0.00,,,0.00,160,Wunderground v.1.15,2013-01-19 19:58:00,
2013-01-19 14:03:00,38.4,30.2,29.76,WSW,254,17.0,28.0,72,0.00,,,0.00,181,Wunderground v.1.15,2013-01-19 20:03:00,
2013-01-19 14:08:00,38.5,29.9,29.76,WNW,288,19.0,19.0,71,0.00,,,0.00,165,Wunderground v.1.15,2013-01-19 20:08:00,
2013-01-19 14:13:00,38.5,29.9,29.76,West,262,21.0,31.0,71,0.00,,,0.00,220,Wunderground v.1.15,2013-01-19 20:13:00,
2013-01-19 14:19:00,38.5,29.9,29.76,West,273,19.0,21.0,71,0.00,,,0.00,144,Wunderground v.1.15,2013-01-19 20:19:00,
2013-01-19 14:24:00,38.5,29.9,29.76,West,264,32.0,32.0,71,0.00,,,0.00,107,Wunderground v.1.15,2013-01-19 20:24:00,
2013-01-19 14:29:00,38.3,29.7,29.76,West,272,28.0,28.0,71,0.00,,,0.00,84,Wunderground v.1.15,2013-01-19 20:29:00,
2013-01-19 14:34:00,38.2,29.6,29.76,WNW,284,20.0,30.0,71,0.00,,,0.00,69,Wunderground v.1.15,2013-01-19 20:34:00,
2013-01-19 14:40:00,37.8,29.6,29.77,WNW,302,17.0,34.0,72,0.00,,,0.00,113,Wunderground v.1.15,2013-01-19 20:40:00,
2013-01-19 14:45:00,36.2,25.9,29.78,WNW,293,29.0,34.0,66,0.00,,,0.00,116,Wunderground v.1.15,2013-01-19 20:45:00,
2013-01-19 14:50:00,34.8,23.9,29.78,NW,315,21.0,39.0,64,0.00,,,0.00,116,Wunderground v.1.15,2013-01-19 20:50:00,
2013-01-19 14:56:00,33.9,23.4,29.79,WNW,294,22.0,39.0,65,0.00,,,0.00,91,Wunderground v.1.15,2013-01-19 20:56:00,
2013-01-19 15:01:00,33.0,22.5,29.79,NW,312,24.0,32.0,65,0.00,,,0.00,76,Wunderground v.1.15,2013-01-19 21:01:00,
2013-01-19 15:06:00,32.5,22.0,29.80,West,273,15.0,32.0,65,0.00,,,0.00,135,Wunderground v.1.15,2013-01-19 21:06:00,
2013-01-19 15:12:00,32.2,21.0,29.80,WSW,249,28.0,34.0,63,0.00,,,0.00,149,Wunderground v.1.15,2013-01-19 21:12:00,
2013-01-19 15:18:00,30.3,16.5,29.81,West,275,35.0,35.0,56,0.00,,,0.00,234,Wunderground v.1.15,2013-01-19 21:18:00,
2013-01-19 15:23:00,29.3,16.3,29.82,WNW,298,24.0,36.0,58,0.00,,,0.00,211,Wunderground v.1.15,2013-01-19 21:23:00,
2013-01-19 15:28:00,29.0,16.8,29.83,NW,308,28.0,28.0,60,0.00,,,0.00,197,Wunderground v.1.15,2013-01-19 21:28:00,
2013-01-19 15:34:00,28.7,17.3,29.84,WNW,291,28.0,42.0,62,0.00,,,0.00,216,Wunderground v.1.15,2013-01-19 21:34:00,
2013-01-19 15:39:00,27.5,15.4,29.85,WNW,285,22.0,36.0,60,0.00,,,0.00,65,Wunderground v.1.15,2013-01-19 21:39:00,
2013-01-19 15:44:00,25.6,14.4,29.87,WNW,302,29.0,47.0,62,0.00,,,0.00,40,Wunderground v.1.15,2013-01-19 21:44:00,
2013-01-19 15:49:00,24.3,12.4,29.88,West,279,22.0,34.0,60,0.00,,,0.00,44,Wunderground v.1.15,2013-01-19 21:49:00,
2013-01-19 15:56:00,23.0,10.0,29.88,WNW,292,24.0,39.0,57,0.00,,,0.00,42,Wunderground v.1.15,2013-01-19 21:56:00,
2013-01-19 16:01:00,22.4,9.8,29.89,WNW,300,23.0,26.0,58,0.00,,,0.00,44,Wunderground v.1.15,2013-01-19 22:01:00,
2013-01-19 16:07:00,21.6,9.8,29.91,West,277,26.0,32.0,60,0.00,,,0.00,63,Wunderground v.1.15,2013-01-19 22:07:00,
2013-01-19 16:12:00,20.9,9.5,29.91,WNW,292,26.0,35.0,61,0.00,,,0.00,33,Wunderground v.1.15,2013-01-19 22:12:00,
2013-01-19 16:18:00,20.6,9.3,29.91,WNW,299,24.0,35.0,61,0.00,,,0.00,51,Wunderground v.1.15,2013-01-19 22:18:00,
2013-01-19 16:23:00,20.3,9.0,29.92,WNW,295,16.0,25.0,61,0.00,,,0.00,53,Wunderground v.1.15,2013-01-19 22:23:00,
2013-01-19 16:28:00,19.7,8.0,29.92,WNW,284,26.0,26.0,60,0.00,,,0.00,49,Wunderground v.1.15,2013-01-19 22:28:00,
2013-01-19 16:33:00,19.3,7.7,29.93,WNW,298,16.0,30.0,60,0.00,,,0.00,37,Wunderground v.1.15,2013-01-19 22:33:00,
2013-01-19 16:38:00,18.6,6.6,29.94,WNW,290,33.0,33.0,59,0.00,,,0.00,35,Wunderground v.1.15,2013-01-19 22:38:00,
2013-01-19 16:43:00,18.1,5.8,29.95,WNW,293,25.0,40.0,58,0.00,,,0.00,21,Wunderground v.1.15,2013-01-19 22:43:00,
2013-01-19 16:48:00,17.9,5.2,29.96,WNW,296,20.0,26.0,57,0.00,,,0.00,14,Wunderground v.1.15,2013-01-19 22:48:00,
2013-01-19 16:54:00,17.4,4.7,29.96,WNW,282,20.0,32.0,57,0.00,,,0.00,9,Wunderground v.1.15,2013-01-19 22:54:00,
2013-01-19 16:59:00,17.0,4.4,29.97,WNW,288,30.0,40.0,57,0.00,,,0.00,7,Wunderground v.1.15,2013-01-19 22:59:00,
2013-01-19 17:04:00,16.7,4.1,29.97,NW,311,23.0,40.0,57,0.00,,,0.00,5,Wunderground v.1.15,2013-01-19 23:04:00,
2013-01-19 17:09:00,16.6,4.0,29.98,WNW,301,15.0,26.0,57,0.00,,,0.00,0,Wunderground v.1.15,2013-01-19 23:09:00,
2013-01-19 17:14:00,16.2,2.8,29.98,West,267,19.0,39.0,55,0.00,,,0.00,0,Wunderground v.1.15,2013-01-19 23:14:00,
2013-01-19 17:19:00,15.8,2.5,29.99,NNW,340,33.0,33.0,55,0.00,,,0.00,0,Wunderground v.1.15,2013-01-19 23:19:00,
2013-01-19 17:25:00,15.3,2.0,30.00,WNW,296,30.0,33.0,55,0.00,,,0.00,0,Wunderground v.1.15,2013-01-19 23:25:00,
2013-01-19 17:30:00,14.9,2.4,30.00,NW,319,8.0,27.0,57,0.00,,,0.00,0,Wunderground v.1.15,2013-01-19 23:30:00,
2013-01-19 17:35:00,14.8,3.0,30.01,WNW,298,25.0,27.0,59,0.00,,,0.00,0,Wunderground v.1.15,2013-01-19 23:35:00,
2013-01-19 17:40:00,14.6,2.5,30.02,WNW,288,21.0,23.0,58,0.00,,,0.00,0,Wunderground v.1.15,2013-01-19 23:40:00,
2013-01-19 17:45:00,14.3,2.2,30.02,NW,305,29.0,29.0,58,0.00,,,0.00,0,Wunderground v.1.15,2013-01-19 23:45:00,
2013-01-19 17:50:00,13.9,1.8,30.02,WNW,286,14.0,34.0,58,0.00,,,0.00,0,Wunderground v.1.15,2013-01-19 23:50:00,
2013-01-19 17:57:00,13.6,2.3,30.03,WNW,294,32.0,34.0,60,0.00,,,0.00,0,Wunderground v.1.15,2013-01-19 23:57:00,
2013-01-19 18:02:00,13.3,2.3,30.04,West,279,11.0,25.0,61,0.00,,,0.00,0,Wunderground v.1.15,2013-01-20 00:02:00,
2013-01-19 18:07:00,13.1,3.2,30.04,WNW,285,16.0,26.0,64,0.00,,,0.00,0,Wunderground v.1.15,2013-01-20 00:07:00,
2013-01-19 18:13:00,12.9,3.3,30.05,West,269,25.0,25.0,65,0.00,,,0.00,0,Wunderground v.1.15,2013-01-20 00:13:00,
2013-01-19 18:19:00,13.0,2.4,30.06,WNW,295,16.0,16.0,62,0.00,,,0.00,0,Wunderground v.1.15,2013-01-20 00:19:00,
2013-01-19 18:24:00,12.8,1.9,30.07,NNW,327,17.0,29.0,61,0.00,,,0.00,0,Wunderground v.1.15,2013-01-20 00:24:00,
2013-01-19 18:29:00,12.5,1.2,30.07,NW,311,22.0,30.0,60,0.00,,,0.00,0,Wunderground v.1.15,2013-01-20 00:29:00,
2013-01-19 18:34:00,12.0,0.8,30.07,NW,315,11.0,30.0,60,0.00,,,0.00,0,Wunderground v.1.15,2013-01-20 00:34:00,
2013-01-19 18:39:00,11.8,0.6,30.08,NW,313,7.0,21.0,60,0.00,,,0.00,0,Wunderground v.1.15,2013-01-20 00:39:00,
2013-01-19 18:45:00,11.4,0.2,30.08,West,275,19.0,34.0,60,0.00,,,0.00,0,Wunderground v.1.15,2013-01-20 00:45:00,
2013-01-19 18:50:00,11.1,-0.1,30.09,NW,307,29.0,35.0,60,0.00,,,0.00,0,Wunderground v.1.15,2013-01-20 00:50:00,
2013-01-19 18:56:00,10.5,-1.4,30.09,NW,318,27.0,35.0,58,0.00,,,0.00,0,Wunderground v.1.15,2013-01-20 00:56:00,
2013-01-19 19:01:00,10.2,-1.3,30.10,WNW,287,22.0,22.0,59,0.00,,,0.00,0,Wunderground v.1.15,2013-01-20 01:01:00,
2013-01-19 19:06:00,9.9,-0.9,30.11,WNW,297,19.0,25.0,61,0.00,,,0.00,0,Wunderground v.1.15,2013-01-20 01:06:00,
2013-01-19 19:12:00,9.8,-1.0,30.11,North,360,13.0,21.0,61,0.00,,,0.00,0,Wunderground v.1.15,2013-01-20 01:12:00,
2013-01-19 19:17:00,9.8,-0.6,30.12,NNW,333,10.0,24.0,62,0.00,,,0.00,0,Wunderground v.1.15,2013-01-20 01:17:00,
2013-01-19 19:22:00,9.5,-0.9,30.12,NW,309,22.0,31.0,62,0.00,,,0.00,0,Wunderground v.1.15,2013-01-20 01:22:00,
2013-01-19 19:27:00,9.1,-1.3,30.12,WNW,292,29.0,31.0,62,0.00,,,0.00,0,Wunderground v.1.15,2013-01-20 01:27:00,
2013-01-19 19:32:00,8.6,-1.8,30.13,WNW,299,31.0,31.0,62,0.00,,,0.00,0,Wunderground v.1.15,2013-01-20 01:32:00,
2013-01-19 19:37:00,8.0,-2.7,30.14,NW,310,16.0,31.0,61,0.00,,,0.00,0,Wunderground v.1.15,2013-01-20 01:37:00,
2013-01-19 19:43:00,7.7,-3.0,30.14,NW,317,11.0,29.0,61,0.00,,,0.00,0,Wunderground v.1.15,2013-01-20 01:43:00,
2013-01-19 19:48:00,7.6,-2.7,30.15,West,271,18.0,24.0,62,0.00,,,0.00,0,Wunderground v.1.15,2013-01-20 01:48:00,
2013-01-19 19:53:00,7.3,-3.0,30.16,NW,319,10.0,28.0,62,0.00,,,0.00,0,Wunderground v.1.15,2013-01-20 01:53:00,
2013-01-19 19:59:00,7.0,-3.0,30.16,NW,313,12.0,25.0,63,0.00,,,0.00,0,Wunderground v.1.15,2013-01-20 01:59:00,
2013-01-19 20:05:00,6.7,-2.6,30.16,WNW,295,19.0,25.0,65,0.00,,,0.00,0,Wunderground v.1.15,2013-01-20 02:05:00,
2013-01-19 20:10:00,6.5,-2.5,30.17,West,279,13.0,22.0,66,0.00,,,0.00,0,Wunderground v.1.15,2013-01-20 02:10:00,
2013-01-19 20:15:00,6.4,-2.5,30.17,WNW,300,15.0,27.0,66,0.00,,,0.00,0,Wunderground v.1.15,2013-01-20 02:15:00,
2013-01-19 20:20:00,6.3,-2.6,30.17,NW,325,13.0,25.0,66,0.00,,,0.00,0,Wunderground v.1.15,2013-01-20 02:20:00,
2013-01-19 20:26:00,6.2,-2.7,30.18,NW,320,19.0,25.0,66,0.00,,,0.00,0,Wunderground v.1.15,2013-01-20 02:26:00,
2013-01-19 20:31:00,6.0,-3.6,30.18,NW,309,19.0,28.0,64,0.00,,,0.00,0,Wunderground v.1.15,2013-01-20 02:31:00,
2013-01-19 20:36:00,6.0,-3.6,30.19,WNW,287,9.0,28.0,64,0.00,,,0.00,0,Wunderground v.1.15,2013-01-20 02:36:00,
2013-01-19 20:41:00,5.8,-3.4,30.19,WNW,290,16.0,22.0,65,0.00,,,0.00,0,Wunderground v.1.15,2013-01-20 02:41:00,
2013-01-19 20:46:00,5.6,-3.3,30.19,WNW,287,22.0,22.0,66,0.00,,,0.00,0,Wunderground v.1.15,2013-01-20 02:46:00,
2013-01-19 20:51:00,5.5,-3.4,30.20,WNW,293,13.0,20.0,66,0.00,,,0.00,0,Wunderground v.1.15,2013-01-20 02:51:00,
2013-01-19 20:57:00,5.4,-3.5,30.20,NW,313,23.0,23.0,66,0.00,,,0.00,0,Wunderground v.1.15,2013-01-20 02:57:00,
2013-01-19 21:02:00,5.3,-3.9,30.21,WNW,291,13.0,24.0,65,0.00,,,0.00,0,Wunderground v.1.15,2013-01-20 03:02:00,
2013-01-19 21:07:00,5.3,-3.6,30.21,WNW,290,14.0,24.0,66,0.00,,,0.00,0,Wunderground v.1.15,2013-01-20 03:07:00,
2013-01-19 21:12:00,5.2,-3.7,30.21,NW,309,11.0,22.0,66,0.00,,,0.00,0,Wunderground v.1.15,2013-01-20 03:12:00,
2013-01-19 21:18:00,5.2,-3.4,30.22,WNW,284,19.0,19.0,67,0.00,,,0.00,0,Wunderground v.1.15,2013-01-20 03:18:00,
2013-01-19 21:23:00,5.1,-3.5,30.22,WNW,297,23.0,23.0,67,0.00,,,0.00,0,Wunderground v.1.15,2013-01-20 03:23:00,
2013-01-19 21:29:00,5.0,-3.6,30.22,WNW,290,9.0,17.0,67,0.00,,,0.00,0,Wunderground v.1.15,2013-01-20 03:29:00,
2013-01-19 21:34:00,5.0,-1.2,30.22,WNW,302,8.0,20.0,75,0.00,,,0.00,0,Wunderground v.1.15,2013-01-20 03:34:00,
2013-01-19 21:39:00,5.0,-3.6,30.22,NW,323,10.0,14.0,67,0.00,,,0.00,0,Wunderground v.1.15,2013-01-20 03:39:00,
2013-01-19 21:44:00,4.9,-3.4,30.23,NW,304,15.0,21.0,68,0.00,,,0.00,0,Wunderground v.1.15,2013-01-20 03:44:00,
2013-01-19 21:49:00,4.8,-3.5,30.24,NNW,331,17.0,17.0,68,0.00,,,0.00,0,Wunderground v.1.15,2013-01-20 03:49:00,
2013-01-19 21:54:00,4.8,-3.5,30.24,WNW,300,9.0,22.0,68,0.00,,,0.00,0,Wunderground v.1.15,2013-01-20 03:54:00,
2013-01-19 22:00:00,4.7,-3.6,30.24,WNW,290,13.0,14.0,68,0.00,,,0.00,0,Wunderground v.1.15,2013-01-20 04:00:00,
2013-01-19 22:05:00,4.7,-3.6,30.24,WNW,286,13.0,20.0,68,0.00,,,0.00,0,Wunderground v.1.15,2013-01-20 04:05:00,
2013-01-19 22:10:00,4.7,-3.6,30.24,WNW,300,7.0,16.0,68,0.00,,,0.00,0,Wunderground v.1.15,2013-01-20 04:10:00,
2013-01-19 22:15:00,4.7,-3.6,30.25,NW,326,10.0,16.0,68,0.00,,,0.00,0,Wunderground v.1.15,2013-01-20 04:15:00,
2013-01-19 22:20:00,4.7,-3.6,30.25,WNW,286,11.0,11.0,68,0.00,,,0.00,0,Wunderground v.1.15,2013-01-20 04:20:00,
2013-01-19 22:25:00,4.5,-3.7,30.26,WNW,286,13.0,19.0,68,0.00,,,0.00,0,Wunderground v.1.15,2013-01-20 04:25:00,
2013-01-19 22:31:00,4.4,-3.8,30.26,NNW,328,10.0,18.0,68,0.00,,,0.00,0,Wunderground v.1.15,2013-01-20 04:31:00,
2013-01-19 22:36:00,4.4,-3.8,30.26,WNW,302,15.0,23.0,68,0.00,,,0.00,0,Wunderground v.1.15,2013-01-20 04:36:00,
2013-01-19 22:41:00,4.4,-3.8,30.26,NW,307,15.0,15.0,68,0.00,,,0.00,0,Wunderground v.1.15,2013-01-20 04:41:00,
2013-01-19 22:46:00,4.4,-3.8,30.27,WNW,288,13.0,17.0,68,0.00,,,0.00,0,Wunderground v.1.15,2013-01-20 04:46:00,
2013-01-19 22:52:00,4.3,-3.9,30.26,WNW,300,12.0,15.0,68,0.00,,,0.00,0,Wunderground v.1.15,2013-01-20 04:52:00,
2013-01-19 22:57:00,4.2,-4.0,30.26,WNW,298,9.0,20.0,68,0.00,,,0.00,0,Wunderground v.1.15,2013-01-20 04:57:00,
2013-01-19 23:02:00,4.1,-4.1,30.26,WNW,284,22.0,22.0,68,0.00,,,0.00,0,Wunderground v.1.15,2013-01-20 05:02:00,
2013-01-19 23:03:00,4.1,-4.1,30.26,West,281,18.0,22.0,68,0.00,,,0.00,0,Wunderground v.1.15,2013-01-20 05:03:00,
2013-01-19 23:06:00,4.1,-4.1,30.26,NW,314,18.0,22.0,68,0.00,,,0.00,0,Wunderground v.1.15,2013-01-20 05:06:00,
2013-01-19 23:11:00,4.1,-4.1,30.26,WNW,292,14.0,14.0,68,0.00,,,0.00,0,Wunderground v.1.15,2013-01-20 05:11:00,
2013-01-19 23:13:00,4.0,-3.9,30.26,WNW,294,14.0,14.0,69,0.00,,,0.00,0,Wunderground v.1.15,2013-01-20 05:13:00,
2013-01-19 23:18:00,3.9,-4.3,30.26,NNW,327,8.0,12.0,68,0.00,,,0.00,0,Wunderground v.1.15,2013-01-20 05:18:00,
2013-01-19 23:23:00,3.8,-4.4,30.26,NNW,332,12.0,21.0,68,0.00,,,0.00,0,Wunderground v.1.15,2013-01-20 05:23:00,
2013-01-19 23:29:00,3.8,-4.1,30.25,WNW,302,9.0,14.0,69,0.00,,,0.00,0,Wunderground v.1.15,2013-01-20 05:29:00,
2013-01-19 23:35:00,3.7,-4.2,30.25,NW,317,13.0,20.0,69,0.00,,,0.00,0,Wunderground v.1.15,2013-01-20 05:35:00,
2013-01-19 23:40:00,3.6,-4.3,30.25,NW,315,18.0,18.0,69,0.00,,,0.00,0,Wunderground v.1.15,2013-01-20 05:40:00,
2013-01-19 23:46:00,3.6,-4.3,30.25,WNW,293,13.0,18.0,69,0.00,,,0.00,0,Wunderground v.1.15,2013-01-20 05:46:00,
2013-01-19 23:52:00,3.5,-4.4,30.26,NW,321,13.0,14.0,69,0.00,,,0.00,0,Wunderground v.1.15,2013-01-20 05:52:00,
2013-01-19 23:58:00,3.4,-4.5,30.26,WNW,298,11.0,12.0,69,0.00,,,0.00,0,Wunderground v.1.15,2013-01-20 05:58:00,